»·PEaware :: EWG315 LSZH-EDDL

EWG315 :: LSZH-EDDL

FLIGHT INFORMATION

Flight Status: Arrived
Operator:
Eurowings
More flights by this operator :: More flights under this callsign
Pilot: James B. (24167)
Aircraft: AIRBUS A320
(A320)
More flights by this aircraft type
Origin: LSZH Zurich
Switzerland
Destination: EDDL Dusseldorf
Germany
More flights between these airports :: More routes between these airports
Route: ZUE T163 KOVAN RIDSU T881 ROLIS OBOKA UZ28 OLPEX IBIXI IBIXI1B
File this flight plan on PilotEdge
Remarks:
Altitude:
(Current/Filed)
30,000ft
Speed:
(Current/Filed)
399kts
Departed: 15-Oct-19 03:21 AM
Arrived: 15-Oct-19 04:14 AM
Distance/Time
Traveled:
240nm/0:53
Distance/Time
To Go:
Arrived

Flight Plot

Page will automatically refresh every two minutes.

Flight plan parsing failed; only flown route is shown


Map Options




Map Legend


Flown Route
Filed Route
Departure Airport
Arrival Airport
Navaid (VOR, NDB)
Fix

Horizontal Profiles

Position Reports

Time Latitude Longitude Heading Altitude Ground
Speed
15-Oct-19 02:37 47.454155 8.558704 185 1425ft 0kts
15-Oct-19 02:38 47.454155 8.558704 185 1425ft 0kts
15-Oct-19 02:39 47.454155 8.558704 185 1425ft 0kts
15-Oct-19 02:40 47.454155 8.558704 185 1425ft 0kts
15-Oct-19 02:41 47.454155 8.558704 185 1425ft 0kts
15-Oct-19 02:42 47.454155 8.558704 185 1425ft 0kts
15-Oct-19 02:43 47.454155 8.558704 185 1425ft 0kts
15-Oct-19 02:44 47.454155 8.558704 185 1425ft 0kts
15-Oct-19 02:45 47.454155 8.558704 185 1425ft 0kts
15-Oct-19 02:46 47.454155 8.558704 185 1425ft 0kts
15-Oct-19 02:47 47.454155 8.558704 185 1425ft 0kts
15-Oct-19 02:48 47.454155 8.558704 185 1425ft 0kts
15-Oct-19 02:49 47.454155 8.558704 185 1425ft 0kts
15-Oct-19 02:50 47.454155 8.558704 185 1425ft 0kts
15-Oct-19 02:51 47.454155 8.558704 185 1425ft 0kts
15-Oct-19 02:52 47.454155 8.558704 185 1425ft 0kts
15-Oct-19 02:53 47.454155 8.558704 185 1425ft 0kts
15-Oct-19 02:54 47.454155 8.558704 185 1425ft 0kts
15-Oct-19 02:55 47.454155 8.558704 185 1425ft 0kts
15-Oct-19 02:56 47.454155 8.558704 185 1425ft 0kts
15-Oct-19 02:57 47.454155 8.558704 185 1425ft 0kts
15-Oct-19 02:58 47.454155 8.558704 185 1425ft 0kts
15-Oct-19 02:59 47.454155 8.558704 185 1425ft 0kts
15-Oct-19 03:00 47.454155 8.558704 185 1425ft 0kts
15-Oct-19 03:01 47.454155 8.558704 185 1425ft 0kts
15-Oct-19 03:02 47.454155 8.558704 185 1425ft 0kts
15-Oct-19 03:03 47.454155 8.558704 185 1425ft 0kts
15-Oct-19 03:04 47.454155 8.558704 185 1425ft 0kts
15-Oct-19 03:05 47.454155 8.558704 185 1425ft 0kts
15-Oct-19 03:06 47.454155 8.558704 185 1425ft 0kts
15-Oct-19 03:07 47.454156 8.558705 185 1425ft 0kts
15-Oct-19 03:08 47.454679 8.558776 185 1425ft 2kts
15-Oct-19 03:09 47.455011 8.558470 92 1425ft 1kts
15-Oct-19 03:10 47.455013 8.558428 95 1425ft 0kts
15-Oct-19 03:11 47.455012 8.558440 95 1425ft 0kts
15-Oct-19 03:12 47.454801 8.561207 97 1425ft 12kts
15-Oct-19 03:13 47.456164 8.562628 4 1425ft 1kts
15-Oct-19 03:14 47.458216 8.562932 5 1425ft 14kts
15-Oct-19 03:15 47.459049 8.563057 7 1425ft 0kts
15-Oct-19 03:16 47.459049 8.563057 7 1425ft 0kts
15-Oct-19 03:17 47.459547 8.563149 6 1425ft 4kts
15-Oct-19 03:18 47.461363 8.564248 345 1425ft 2kts
15-Oct-19 03:19 47.461525 8.564101 320 1425ft 0kts
15-Oct-19 03:20 47.481848 8.536285 315 2229ft 177kts
15-Oct-19 03:21 47.521668 8.493360 299 5376ft 192kts
15-Oct-19 03:22 47.508943 8.413374 240 8188ft 223kts
15-Oct-19 03:23 47.461115 8.368976 172 10795ft 261kts
15-Oct-19 03:24 47.407295 8.452081 97 12430ft 346kts
15-Oct-19 03:25 47.463607 8.565472 41 14902ft 383kts
15-Oct-19 03:26 47.526659 8.683531 57 16803ft 400kts
15-Oct-19 03:27 47.590273 8.805237 41 18598ft 423kts
15-Oct-19 03:28 47.703336 8.863257 15 20557ft 440kts
15-Oct-19 03:29 47.824236 8.902140 5 22323ft 452kts
15-Oct-19 03:30 47.950705 8.920913 5 23981ft 463kts
15-Oct-19 03:31 48.080135 8.940310 4 25555ft 471kts
15-Oct-19 03:32 48.211914 8.960164 4 26940ft 479kts
15-Oct-19 03:33 48.345931 8.980475 4 28118ft 489kts
15-Oct-19 03:34 48.481708 9.001173 3 29531ft 489kts
15-Oct-19 03:35 48.612361 8.972775 333 29842ft 473kts
15-Oct-19 03:36 48.733807 8.898141 334 29845ft 475kts
15-Oct-19 03:37 48.857111 8.823085 334 29848ft 476kts
15-Oct-19 03:38 48.980125 8.747650 334 29858ft 476kts
15-Oct-19 03:39 49.102444 8.672414 334 29756ft 483kts
15-Oct-19 03:40 49.225923 8.596060 334 29824ft 486kts
15-Oct-19 03:41 49.349799 8.519114 334 29866ft 483kts
15-Oct-19 03:42 49.473721 8.441435 334 29839ft 481kts
15-Oct-19 03:43 49.595167 8.365098 334 29803ft 479kts
15-Oct-19 03:44 49.709663 8.292742 333 29800ft 479kts
15-Oct-19 03:45 49.832395 8.214762 333 29835ft 479kts
15-Oct-19 03:46 49.955507 8.136102 333 29825ft 481kts
15-Oct-19 03:47 50.078697 8.056962 333 29854ft 483kts
15-Oct-19 03:48 50.197213 7.980382 333 29854ft 482kts
15-Oct-19 03:49 50.319784 7.900772 333 29863ft 481kts
15-Oct-19 03:50 50.439674 7.814970 317 29876ft 468kts
15-Oct-19 03:51 50.526055 7.683461 308 28344ft 413kts
15-Oct-19 03:52 50.604577 7.559849 308 25467ft 404kts
15-Oct-19 03:53 50.684009 7.434530 309 22945ft 394kts
15-Oct-19 03:54 50.755531 7.314492 298 22855ft 369kts
15-Oct-19 03:55 50.813006 7.185811 298 22847ft 337kts
15-Oct-19 03:56 50.863986 7.071163 298 22844ft 315kts
15-Oct-19 03:57 50.931261 6.993364 359 20806ft 329kts
15-Oct-19 03:58 51.020323 6.994718 359 18812ft 319kts
15-Oct-19 03:59 51.101040 6.995392 358 16934ft 313kts
15-Oct-19 04:00 51.182388 6.995915 358 14983ft 309kts
15-Oct-19 04:01 51.265467 7.008236 41 13077ft 292kts
15-Oct-19 04:02 51.321353 7.099675 60 11340ft 271kts
15-Oct-19 04:03 51.368013 7.199521 60 9540ft 286kts
15-Oct-19 04:04 51.416178 7.299490 45 7649ft 287kts
15-Oct-19 04:05 51.486283 7.281943 294 5720ft 283kts
15-Oct-19 04:06 51.479631 7.172577 230 4407ft 231kts
15-Oct-19 04:07 51.443909 7.095508 235 3960ft 200kts
15-Oct-19 04:08 51.411118 7.027028 235 3151ft 194kts
15-Oct-19 04:09 51.378034 6.957981 234 2824ft 194kts
15-Oct-19 04:10 51.347045 6.893220 234 1905ft 168kts
15-Oct-19 04:11 51.322430 6.841705 233 1080ft 130kts
15-Oct-19 04:12 51.300528 6.795833 232 400ft 131kts
15-Oct-19 04:13 51.284235 6.761712 229 154ft 26kts
15-Oct-19 04:14 51.282240 6.760661 158 154ft 0kts
15-Oct-19 04:15 51.282404 6.762560 52 154ft 15kts
15-Oct-19 04:16 51.283911 6.767019 140 154ft 6kts
15-Oct-19 04:17 51.282088 6.768466 191 154ft 4kts
15-Oct-19 04:18 51.282076 6.767429 274 154ft 0kts
15-Oct-19 04:19 51.282076 6.767429 274 154ft 0kts
15-Oct-19 04:20 51.282076 6.767429 274 154ft 0kts

Navigation Log

Ident Type
Flight plan parsing failed, navigation log unavailable